< < Back
Terminal Aerodrome Forecast


Current Version              Previous Versions:   1  2  3  4  5  6  7  8  9  

Terminal Aerodrome Forecast

266
FTUS42 KCAE 292300
TAFAGS
TAF
KAGS 292320Z 3000/3024 20004KT P6SM SCT250
     FM300300 18003KT P6SM BKN040
     FM300700 19005KT P6SM BKN060
     FM301300 24011G16KT P6SM VCSH SCT025 OVC050
     FM301900 30014KT P6SM SCT250=



Latest METAR

742
SAUS70 KWBC 300100
MTRAGS
METAR KAGS 300053Z 00000KT 10SM CLR 07/M05 A3030 RMK AO2 SLP261
T00721050


USA.gov is the U.S. government's official web portal to all federal, state and local government web resources and services.